sensor_id;sensor_type;location;lat;lon;timestamp;P1;durP1;ratioP1;P2;durP2;ratioP2
25381;SDS011;16307;42.896;20.874;2022-07-29T00:00:38;8.50;;;5.18;;
25381;SDS011;16307;42.896;20.874;2022-07-29T00:03:24;7.47;;;5.00;;
25381;SDS011;16307;42.896;20.874;2022-07-29T00:06:10;6.03;;;4.70;;
25381;SDS011;16307;42.896;20.874;2022-07-29T00:08:56;5.90;;;4.95;;
25381;SDS011;16307;42.896;20.874;2022-07-29T00:11:42;6.25;;;4.75;;
25381;SDS011;16307;42.896;20.874;2022-07-29T00:14:29;12.52;;;4.60;;
25381;SDS011;16307;42.896;20.874;2022-07-29T00:17:15;5.63;;;4.30;;
25381;SDS011;16307;42.896;20.874;2022-07-29T00:20:04;6.30;;;4.80;;
25381;SDS011;16307;42.896;20.874;2022-07-29T00:22:50;7.22;;;4.55;;
25381;SDS011;16307;42.896;20.874;2022-07-29T00:25:37;6.63;;;4.53;;
25381;SDS011;16307;42.896;20.874;2022-07-29T00:28:23;10.15;;;4.43;;
25381;SDS011;16307;42.896;20.874;2022-07-29T00:31:09;11.55;;;4.68;;
25381;SDS011;16307;42.896;20.874;2022-07-29T00:33:56;4.38;;;3.80;;
25381;SDS011;16307;42.896;20.874;2022-07-29T00:36:41;6.35;;;3.90;;
25381;SDS011;16307;42.896;20.874;2022-07-29T00:39:28;8.05;;;4.97;;
25381;SDS011;16307;42.896;20.874;2022-07-29T00:42:13;4.93;;;4.25;;
25381;SDS011;16307;42.896;20.874;2022-07-29T00:44:59;8.45;;;4.22;;
25381;SDS011;16307;42.896;20.874;2022-07-29T00:47:46;7.50;;;5.00;;
25381;SDS011;16307;42.896;20.874;2022-07-29T00:50:32;6.60;;;4.28;;
25381;SDS011;16307;42.896;20.874;2022-07-29T00:53:18;8.20;;;4.25;;
25381;SDS011;16307;42.896;20.874;2022-07-29T00:56:05;7.18;;;4.40;;
25381;SDS011;16307;42.896;20.874;2022-07-29T00:58:51;8.45;;;4.68;;
25381;SDS011;16307;42.896;20.874;2022-07-29T01:01:37;9.45;;;4.55;;
25381;SDS011;16307;42.896;20.874;2022-07-29T01:04:22;6.80;;;4.57;;
25381;SDS011;16307;42.896;20.874;2022-07-29T01:07:09;7.50;;;4.30;;
25381;SDS011;16307;42.896;20.874;2022-07-29T01:09:55;6.80;;;4.47;;
25381;SDS011;16307;42.896;20.874;2022-07-29T01:12:43;5.72;;;4.45;;
25381;SDS011;16307;42.896;20.874;2022-07-29T01:15:29;4.32;;;3.92;;
25381;SDS011;16307;42.896;20.874;2022-07-29T01:24:33;9.45;;;4.90;;
25381;SDS011;16307;42.896;20.874;2022-07-29T01:30:28;8.68;;;4.68;;
25381;SDS011;16307;42.896;20.874;2022-07-29T01:33:17;5.28;;;4.25;;
25381;SDS011;16307;42.896;20.874;2022-07-29T01:36:35;6.70;;;4.68;;
25381;SDS011;16307;42.896;20.874;2022-07-29T01:39:30;5.60;;;4.00;;
25381;SDS011;16307;42.896;20.874;2022-07-29T01:45:26;6.90;;;4.50;;
25381;SDS011;16307;42.896;20.874;2022-07-29T01:48:21;6.40;;;4.57;;
25381;SDS011;16307;42.896;20.874;2022-07-29T01:51:17;8.70;;;4.35;;
25381;SDS011;16307;42.896;20.874;2022-07-29T01:57:09;6.70;;;4.55;;
25381;SDS011;16307;42.896;20.874;2022-07-29T01:59:57;6.55;;;4.13;;
25381;SDS011;16307;42.896;20.874;2022-07-29T02:02:44;6.75;;;4.25;;
25381;SDS011;16307;42.896;20.874;2022-07-29T02:05:31;6.75;;;4.47;;
25381;SDS011;16307;42.896;20.874;2022-07-29T02:08:18;6.70;;;4.38;;
25381;SDS011;16307;42.896;20.874;2022-07-29T02:11:05;10.60;;;4.70;;
25381;SDS011;16307;42.896;20.874;2022-07-29T02:13:53;7.90;;;4.53;;
25381;SDS011;16307;42.896;20.874;2022-07-29T02:16:40;5.18;;;3.90;;
25381;SDS011;16307;42.896;20.874;2022-07-29T02:19:26;6.45;;;4.57;;
25381;SDS011;16307;42.896;20.874;2022-07-29T02:22:13;5.68;;;4.35;;
25381;SDS011;16307;42.896;20.874;2022-07-29T02:25:00;9.57;;;4.43;;
25381;SDS011;16307;42.896;20.874;2022-07-29T02:27:48;6.45;;;4.13;;
25381;SDS011;16307;42.896;20.874;2022-07-29T02:30:36;6.32;;;4.65;;
25381;SDS011;16307;42.896;20.874;2022-07-29T02:33:25;8.07;;;5.05;;
25381;SDS011;16307;42.896;20.874;2022-07-29T02:36:12;7.90;;;4.20;;
25381;SDS011;16307;42.896;20.874;2022-07-29T02:38:59;7.45;;;4.47;;
25381;SDS011;16307;42.896;20.874;2022-07-29T02:41:55;6.78;;;4.82;;
25381;SDS011;16307;42.896;20.874;2022-07-29T02:44:43;7.85;;;4.50;;
25381;SDS011;16307;42.896;20.874;2022-07-29T02:50:29;8.27;;;4.95;;
25381;SDS011;16307;42.896;20.874;2022-07-29T02:53:20;7.22;;;5.18;;
25381;SDS011;16307;42.896;20.874;2022-07-29T02:56:10;5.85;;;4.28;;
25381;SDS011;16307;42.896;20.874;2022-07-29T02:58:59;8.93;;;4.57;;
25381;SDS011;16307;42.896;20.874;2022-07-29T03:01:48;8.10;;;4.13;;
25381;SDS011;16307;42.896;20.874;2022-07-29T03:04:34;7.13;;;4.55;;
25381;SDS011;16307;42.896;20.874;2022-07-29T03:07:21;5.78;;;4.28;;
25381;SDS011;16307;42.896;20.874;2022-07-29T03:10:08;4.70;;;4.03;;
25381;SDS011;16307;42.896;20.874;2022-07-29T03:12:58;5.80;;;4.70;;
25381;SDS011;16307;42.896;20.874;2022-07-29T03:15:45;5.32;;;4.32;;
25381;SDS011;16307;42.896;20.874;2022-07-29T03:18:32;7.22;;;4.68;;
25381;SDS011;16307;42.896;20.874;2022-07-29T03:21:18;5.28;;;4.60;;
25381;SDS011;16307;42.896;20.874;2022-07-29T03:24:05;8.00;;;4.95;;
25381;SDS011;16307;42.896;20.874;2022-07-29T03:26:57;8.57;;;5.07;;
25381;SDS011;16307;42.896;20.874;2022-07-29T03:29:43;7.18;;;4.75;;
25381;SDS011;16307;42.896;20.874;2022-07-29T03:32:34;6.60;;;5.03;;
25381;SDS011;16307;42.896;20.874;2022-07-29T03:35:21;6.28;;;5.07;;
25381;SDS011;16307;42.896;20.874;2022-07-29T03:38:07;7.95;;;5.47;;
25381;SDS011;16307;42.896;20.874;2022-07-29T03:40:54;9.07;;;5.82;;
25381;SDS011;16307;42.896;20.874;2022-07-29T03:43:42;7.03;;;5.22;;
25381;SDS011;16307;42.896;20.874;2022-07-29T03:46:34;6.55;;;5.60;;
25381;SDS011;16307;42.896;20.874;2022-07-29T03:49:22;11.13;;;5.20;;
25381;SDS011;16307;42.896;20.874;2022-07-29T03:52:09;7.85;;;4.35;;
25381;SDS011;16307;42.896;20.874;2022-07-29T03:54:55;7.20;;;5.05;;
25381;SDS011;16307;42.896;20.874;2022-07-29T03:57:42;7.00;;;5.18;;
25381;SDS011;16307;42.896;20.874;2022-07-29T04:00:28;10.00;;;5.50;;
25381;SDS011;16307;42.896;20.874;2022-07-29T04:03:14;8.70;;;5.63;;
25381;SDS011;16307;42.896;20.874;2022-07-29T04:06:04;10.50;;;5.15;;
25381;SDS011;16307;42.896;20.874;2022-07-29T04:08:51;8.65;;;5.40;;
25381;SDS011;16307;42.896;20.874;2022-07-29T04:11:38;8.93;;;5.00;;
25381;SDS011;16307;42.896;20.874;2022-07-29T04:14:44;9.15;;;5.07;;
25381;SDS011;16307;42.896;20.874;2022-07-29T04:17:30;6.60;;;5.35;;
25381;SDS011;16307;42.896;20.874;2022-07-29T04:20:16;9.60;;;5.78;;
25381;SDS011;16307;42.896;20.874;2022-07-29T04:23:02;9.80;;;6.05;;
25381;SDS011;16307;42.896;20.874;2022-07-29T04:25:48;8.05;;;5.60;;
25381;SDS011;16307;42.896;20.874;2022-07-29T04:28:34;7.60;;;5.03;;
25381;SDS011;16307;42.896;20.874;2022-07-29T04:31:21;9.20;;;5.40;;
25381;SDS011;16307;42.896;20.874;2022-07-29T04:34:10;47.40;;;10.57;;
25381;SDS011;16307;42.896;20.874;2022-07-29T04:36:57;11.43;;;6.10;;
25381;SDS011;16307;42.896;20.874;2022-07-29T04:39:43;11.02;;;5.82;;
25381;SDS011;16307;42.896;20.874;2022-07-29T04:42:29;24.77;;;7.80;;
25381;SDS011;16307;42.896;20.874;2022-07-29T04:45:15;13.95;;;7.07;;
25381;SDS011;16307;42.896;20.874;2022-07-29T04:48:06;7.47;;;5.93;;
25381;SDS011;16307;42.896;20.874;2022-07-29T04:50:53;6.47;;;5.30;;
25381;SDS011;16307;42.896;20.874;2022-07-29T04:53:39;13.70;;;6.72;;
25381;SDS011;16307;42.896;20.874;2022-07-29T04:56:25;11.10;;;6.10;;
25381;SDS011;16307;42.896;20.874;2022-07-29T04:59:11;10.43;;;6.18;;
25381;SDS011;16307;42.896;20.874;2022-07-29T05:01:57;9.27;;;5.68;;
25381;SDS011;16307;42.896;20.874;2022-07-29T05:04:44;9.68;;;6.45;;
25381;SDS011;16307;42.896;20.874;2022-07-29T05:07:30;10.82;;;6.05;;
25381;SDS011;16307;42.896;20.874;2022-07-29T05:10:16;7.80;;;5.97;;
25381;SDS011;16307;42.896;20.874;2022-07-29T05:13:02;19.55;;;7.28;;
25381;SDS011;16307;42.896;20.874;2022-07-29T05:15:48;10.50;;;6.15;;
25381;SDS011;16307;42.896;20.874;2022-07-29T05:18:34;7.22;;;5.65;;
25381;SDS011;16307;42.896;20.874;2022-07-29T05:21:20;6.10;;;5.10;;
25381;SDS011;16307;42.896;20.874;2022-07-29T05:24:10;7.38;;;5.28;;
25381;SDS011;16307;42.896;20.874;2022-07-29T05:26:56;7.35;;;5.38;;
25381;SDS011;16307;42.896;20.874;2022-07-29T05:29:42;8.38;;;5.40;;
25381;SDS011;16307;42.896;20.874;2022-07-29T05:32:30;6.85;;;4.90;;
25381;SDS011;16307;42.896;20.874;2022-07-29T05:35:17;5.55;;;4.65;;
25381;SDS011;16307;42.896;20.874;2022-07-29T05:38:03;9.30;;;5.45;;
25381;SDS011;16307;42.896;20.874;2022-07-29T05:40:52;6.45;;;4.63;;
25381;SDS011;16307;42.896;20.874;2022-07-29T05:43:38;5.32;;;4.70;;
25381;SDS011;16307;42.896;20.874;2022-07-29T05:46:24;6.75;;;4.90;;
25381;SDS011;16307;42.896;20.874;2022-07-29T05:49:09;6.68;;;4.85;;
25381;SDS011;16307;42.896;20.874;2022-07-29T05:52:11;13.00;;;5.30;;
25381;SDS011;16307;42.896;20.874;2022-07-29T05:54:58;8.95;;;5.43;;
25381;SDS011;16307;42.896;20.874;2022-07-29T05:57:48;10.88;;;5.07;;
25381;SDS011;16307;42.896;20.874;2022-07-29T06:00:34;8.07;;;5.20;;
25381;SDS011;16307;42.896;20.874;2022-07-29T06:03:20;7.88;;;5.03;;
25381;SDS011;16307;42.896;20.874;2022-07-29T06:06:05;8.23;;;5.50;;
25381;SDS011;16307;42.896;20.874;2022-07-29T06:08:52;5.70;;;4.88;;
25381;SDS011;16307;42.896;20.874;2022-07-29T06:11:38;7.90;;;5.10;;
25381;SDS011;16307;42.896;20.874;2022-07-29T06:14:24;7.80;;;6.10;;
25381;SDS011;16307;42.896;20.874;2022-07-29T06:17:11;10.52;;;5.60;;
25381;SDS011;16307;42.896;20.874;2022-07-29T06:19:57;8.45;;;5.40;;
25381;SDS011;16307;42.896;20.874;2022-07-29T06:22:43;9.38;;;6.07;;
25381;SDS011;16307;42.896;20.874;2022-07-29T06:25:29;9.18;;;6.30;;
25381;SDS011;16307;42.896;20.874;2022-07-29T06:28:16;5.40;;;4.85;;
25381;SDS011;16307;42.896;20.874;2022-07-29T06:31:02;9.85;;;5.28;;
25381;SDS011;16307;42.896;20.874;2022-07-29T06:33:48;8.88;;;5.40;;
25381;SDS011;16307;42.896;20.874;2022-07-29T06:36:37;5.85;;;4.70;;
25381;SDS011;16307;42.896;20.874;2022-07-29T06:39:25;8.80;;;5.30;;
25381;SDS011;16307;42.896;20.874;2022-07-29T06:42:11;7.10;;;4.45;;
25381;SDS011;16307;42.896;20.874;2022-07-29T06:44:57;5.38;;;4.80;;
25381;SDS011;16307;42.896;20.874;2022-07-29T07:09:30;6.55;;;5.25;;
25381;SDS011;16307;42.896;20.874;2022-07-29T07:12:25;11.00;;;5.10;;
25381;SDS011;16307;42.896;20.874;2022-07-29T07:15:11;8.10;;;5.60;;
25381;SDS011;16307;42.896;20.874;2022-07-29T10:34:22;12.90;;;7.40;;
25381;SDS011;16307;42.896;20.874;2022-07-29T10:40:49;15.50;;;8.45;;
25381;SDS011;16307;42.896;20.874;2022-07-29T10:44:23;14.20;;;9.05;;
25381;SDS011;16307;42.896;20.874;2022-07-29T10:47:20;12.70;;;9.35;;
25381;SDS011;16307;42.896;20.874;2022-07-29T10:50:10;17.00;;;8.25;;
25381;SDS011;16307;42.896;20.874;2022-07-29T10:53:02;9.63;;;7.45;;
25381;SDS011;16307;42.896;20.874;2022-07-29T10:55:53;16.13;;;7.00;;
25381;SDS011;16307;42.896;20.874;2022-07-29T10:58:40;13.88;;;8.60;;
25381;SDS011;16307;42.896;20.874;2022-07-29T11:01:37;14.02;;;9.25;;
25381;SDS011;16307;42.896;20.874;2022-07-29T11:07:29;10.48;;;8.73;;
25381;SDS011;16307;42.896;20.874;2022-07-29T11:10:30;12.40;;;8.07;;
25381;SDS011;16307;42.896;20.874;2022-07-29T11:13:50;9.38;;;7.82;;
25381;SDS011;16307;42.896;20.874;2022-07-29T11:19:51;10.90;;;7.03;;
25381;SDS011;16307;42.896;20.874;2022-07-29T11:22:37;12.40;;;7.30;;
25381;SDS011;16307;42.896;20.874;2022-07-29T11:25:31;12.30;;;8.18;;
25381;SDS011;16307;42.896;20.874;2022-07-29T11:28:39;11.27;;;7.57;;
25381;SDS011;16307;42.896;20.874;2022-07-29T11:31:38;12.13;;;8.38;;
25381;SDS011;16307;42.896;20.874;2022-07-29T11:34:29;9.10;;;6.95;;
25381;SDS011;16307;42.896;20.874;2022-07-29T11:37:19;10.05;;;7.15;;
25381;SDS011;16307;42.896;20.874;2022-07-29T11:40:14;12.90;;;7.68;;
25381;SDS011;16307;42.896;20.874;2022-07-29T11:43:02;12.55;;;6.75;;
25381;SDS011;16307;42.896;20.874;2022-07-29T11:45:52;13.02;;;7.53;;
25381;SDS011;16307;42.896;20.874;2022-07-29T11:48:42;8.93;;;7.05;;
25381;SDS011;16307;42.896;20.874;2022-07-29T11:51:30;14.52;;;7.25;;
25381;SDS011;16307;42.896;20.874;2022-07-29T11:54:21;11.07;;;7.40;;
25381;SDS011;16307;42.896;20.874;2022-07-29T11:57:11;8.82;;;6.78;;
25381;SDS011;16307;42.896;20.874;2022-07-29T12:00:00;12.65;;;6.55;;
25381;SDS011;16307;42.896;20.874;2022-07-29T12:02:58;10.20;;;6.28;;
25381;SDS011;16307;42.896;20.874;2022-07-29T12:05:45;9.65;;;6.07;;
25381;SDS011;16307;42.896;20.874;2022-07-29T12:08:38;14.02;;;6.80;;
25381;SDS011;16307;42.896;20.874;2022-07-29T12:11:26;7.93;;;6.00;;
25381;SDS011;16307;42.896;20.874;2022-07-29T12:20:23;10.43;;;6.47;;
25381;SDS011;16307;42.896;20.874;2022-07-29T12:23:14;10.90;;;6.32;;
25381;SDS011;16307;42.896;20.874;2022-07-29T12:26:04;9.38;;;5.88;;
25381;SDS011;16307;42.896;20.874;2022-07-29T12:31:41;8.98;;;5.22;;
25381;SDS011;16307;42.896;20.874;2022-07-29T12:34:30;8.20;;;5.10;;
25381;SDS011;16307;42.896;20.874;2022-07-29T12:37:16;9.32;;;6.05;;
25381;SDS011;16307;42.896;20.874;2022-07-29T12:40:03;11.38;;;6.97;;
25381;SDS011;16307;42.896;20.874;2022-07-29T12:48:59;10.02;;;6.75;;
25381;SDS011;16307;42.896;20.874;2022-07-29T12:51:48;9.70;;;5.80;;
25381;SDS011;16307;42.896;20.874;2022-07-29T12:54:34;7.50;;;5.60;;
25381;SDS011;16307;42.896;20.874;2022-07-29T12:57:21;12.20;;;6.60;;
25381;SDS011;16307;42.896;20.874;2022-07-29T13:00:09;13.80;;;6.53;;
25381;SDS011;16307;42.896;20.874;2022-07-29T13:02:57;9.48;;;6.28;;
25381;SDS011;16307;42.896;20.874;2022-07-29T13:05:45;15.13;;;7.00;;
25381;SDS011;16307;42.896;20.874;2022-07-29T13:08:34;14.35;;;6.22;;
25381;SDS011;16307;42.896;20.874;2022-07-29T13:14:44;10.55;;;5.35;;
25381;SDS011;16307;42.896;20.874;2022-07-29T13:17:31;11.38;;;5.60;;
25381;SDS011;16307;42.896;20.874;2022-07-29T13:20:27;11.73;;;6.05;;
25381;SDS011;16307;42.896;20.874;2022-07-29T13:23:17;9.05;;;5.47;;
25381;SDS011;16307;42.896;20.874;2022-07-29T13:26:07;12.63;;;5.53;;
25381;SDS011;16307;42.896;20.874;2022-07-29T13:28:54;11.13;;;5.57;;
25381;SDS011;16307;42.896;20.874;2022-07-29T13:31:41;9.55;;;6.10;;
25381;SDS011;16307;42.896;20.874;2022-07-29T13:34:27;10.60;;;5.70;;
25381;SDS011;16307;42.896;20.874;2022-07-29T13:37:12;15.05;;;5.95;;
25381;SDS011;16307;42.896;20.874;2022-07-29T13:39:58;11.95;;;6.75;;
25381;SDS011;16307;42.896;20.874;2022-07-29T13:42:45;16.02;;;8.50;;
25381;SDS011;16307;42.896;20.874;2022-07-29T13:45:31;12.05;;;5.80;;
25381;SDS011;16307;42.896;20.874;2022-07-29T13:48:17;8.90;;;5.50;;
25381;SDS011;16307;42.896;20.874;2022-07-29T13:51:03;7.72;;;5.43;;
25381;SDS011;16307;42.896;20.874;2022-07-29T13:53:49;6.72;;;4.55;;
25381;SDS011;16307;42.896;20.874;2022-07-29T13:56:36;12.48;;;4.70;;
25381;SDS011;16307;42.896;20.874;2022-07-29T13:59:22;7.13;;;4.60;;
25381;SDS011;16307;42.896;20.874;2022-07-29T14:02:08;9.10;;;4.78;;
25381;SDS011;16307;42.896;20.874;2022-07-29T14:04:54;7.80;;;3.72;;
25381;SDS011;16307;42.896;20.874;2022-07-29T14:07:41;11.02;;;4.80;;
25381;SDS011;16307;42.896;20.874;2022-07-29T14:10:27;9.02;;;4.80;;
25381;SDS011;16307;42.896;20.874;2022-07-29T14:13:13;11.02;;;4.93;;
25381;SDS011;16307;42.896;20.874;2022-07-29T14:16:10;9.60;;;4.55;;
25381;SDS011;16307;42.896;20.874;2022-07-29T14:18:57;9.48;;;5.07;;
25381;SDS011;16307;42.896;20.874;2022-07-29T14:21:43;11.00;;;4.50;;
25381;SDS011;16307;42.896;20.874;2022-07-29T14:24:30;5.25;;;3.65;;
25381;SDS011;16307;42.896;20.874;2022-07-29T14:27:16;6.35;;;3.72;;
25381;SDS011;16307;42.896;20.874;2022-07-29T14:30:02;7.25;;;3.50;;
25381;SDS011;16307;42.896;20.874;2022-07-29T14:32:49;6.80;;;3.70;;
25381;SDS011;16307;42.896;20.874;2022-07-29T14:35:35;7.38;;;4.57;;
25381;SDS011;16307;42.896;20.874;2022-07-29T14:38:21;10.10;;;4.65;;
25381;SDS011;16307;42.896;20.874;2022-07-29T14:41:11;8.38;;;3.75;;
25381;SDS011;16307;42.896;20.874;2022-07-29T14:43:57;9.68;;;4.10;;
25381;SDS011;16307;42.896;20.874;2022-07-29T14:46:46;9.25;;;3.75;;
25381;SDS011;16307;42.896;20.874;2022-07-29T14:49:34;7.15;;;3.42;;
25381;SDS011;16307;42.896;20.874;2022-07-29T14:52:20;4.22;;;3.25;;
25381;SDS011;16307;42.896;20.874;2022-07-29T14:55:06;7.13;;;4.70;;
25381;SDS011;16307;42.896;20.874;2022-07-29T14:58:04;11.68;;;4.07;;
25381;SDS011;16307;42.896;20.874;2022-07-29T15:00:57;6.38;;;3.65;;
25381;SDS011;16307;42.896;20.874;2022-07-29T15:03:43;6.50;;;3.50;;
25381;SDS011;16307;42.896;20.874;2022-07-29T15:06:29;7.47;;;3.28;;
25381;SDS011;16307;42.896;20.874;2022-07-29T15:09:15;5.57;;;3.42;;
25381;SDS011;16307;42.896;20.874;2022-07-29T15:12:01;8.80;;;4.20;;
25381;SDS011;16307;42.896;20.874;2022-07-29T15:14:48;8.02;;;4.15;;
25381;SDS011;16307;42.896;20.874;2022-07-29T15:17:34;7.82;;;4.45;;
25381;SDS011;16307;42.896;20.874;2022-07-29T15:20:20;10.20;;;5.50;;
25381;SDS011;16307;42.896;20.874;2022-07-29T15:23:07;8.13;;;3.30;;
25381;SDS011;16307;42.896;20.874;2022-07-29T15:25:54;7.18;;;3.25;;
25381;SDS011;16307;42.896;20.874;2022-07-29T15:28:41;8.25;;;3.92;;
25381;SDS011;16307;42.896;20.874;2022-07-29T15:31:27;8.38;;;3.30;;
25381;SDS011;16307;42.896;20.874;2022-07-29T15:34:13;5.07;;;3.10;;
25381;SDS011;16307;42.896;20.874;2022-07-29T15:36:59;4.53;;;3.40;;
25381;SDS011;16307;42.896;20.874;2022-07-29T15:39:46;8.85;;;4.05;;
25381;SDS011;16307;42.896;20.874;2022-07-29T15:42:32;5.72;;;3.22;;
25381;SDS011;16307;42.896;20.874;2022-07-29T15:45:21;5.07;;;3.70;;
25381;SDS011;16307;42.896;20.874;2022-07-29T15:48:08;5.60;;;3.10;;
25381;SDS011;16307;42.896;20.874;2022-07-29T15:50:59;7.63;;;4.72;;
25381;SDS011;16307;42.896;20.874;2022-07-29T15:53:45;6.88;;;3.65;;
25381;SDS011;16307;42.896;20.874;2022-07-29T15:56:38;9.73;;;4.07;;
25381;SDS011;16307;42.896;20.874;2022-07-29T15:59:24;7.90;;;4.07;;
25381;SDS011;16307;42.896;20.874;2022-07-29T16:02:11;8.65;;;4.72;;
25381;SDS011;16307;42.896;20.874;2022-07-29T16:04:57;7.68;;;4.05;;
25381;SDS011;16307;42.896;20.874;2022-07-29T16:07:43;12.60;;;4.85;;
25381;SDS011;16307;42.896;20.874;2022-07-29T16:10:29;7.63;;;4.20;;
25381;SDS011;16307;42.896;20.874;2022-07-29T16:13:15;5.95;;;3.67;;
25381;SDS011;16307;42.896;20.874;2022-07-29T16:16:03;7.10;;;3.45;;
25381;SDS011;16307;42.896;20.874;2022-07-29T16:18:50;9.30;;;3.72;;
25381;SDS011;16307;42.896;20.874;2022-07-29T16:21:37;10.65;;;4.25;;
25381;SDS011;16307;42.896;20.874;2022-07-29T16:24:23;8.85;;;4.22;;
25381;SDS011;16307;42.896;20.874;2022-07-29T16:27:14;7.05;;;3.58;;
25381;SDS011;16307;42.896;20.874;2022-07-29T16:30:00;5.82;;;3.83;;
25381;SDS011;16307;42.896;20.874;2022-07-29T16:32:46;6.82;;;3.65;;
25381;SDS011;16307;42.896;20.874;2022-07-29T16:35:33;6.72;;;3.28;;
25381;SDS011;16307;42.896;20.874;2022-07-29T16:38:24;9.45;;;4.82;;
25381;SDS011;16307;42.896;20.874;2022-07-29T16:41:11;6.70;;;3.97;;
25381;SDS011;16307;42.896;20.874;2022-07-29T16:43:57;10.63;;;3.78;;
25381;SDS011;16307;42.896;20.874;2022-07-29T16:46:44;7.68;;;3.67;;
25381;SDS011;16307;42.896;20.874;2022-07-29T16:49:32;8.80;;;3.60;;
25381;SDS011;16307;42.896;20.874;2022-07-29T16:52:18;11.18;;;4.45;;
25381;SDS011;16307;42.896;20.874;2022-07-29T16:55:04;9.35;;;4.10;;
25381;SDS011;16307;42.896;20.874;2022-07-29T16:57:51;7.20;;;4.70;;
25381;SDS011;16307;42.896;20.874;2022-07-29T17:00:38;9.65;;;4.63;;
25381;SDS011;16307;42.896;20.874;2022-07-29T17:03:25;10.55;;;4.78;;
25381;SDS011;16307;42.896;20.874;2022-07-29T17:06:11;8.30;;;4.72;;
25381;SDS011;16307;42.896;20.874;2022-07-29T17:08:57;10.77;;;4.50;;
25381;SDS011;16307;42.896;20.874;2022-07-29T17:11:43;11.60;;;4.78;;
25381;SDS011;16307;42.896;20.874;2022-07-29T17:14:39;10.90;;;4.53;;
25381;SDS011;16307;42.896;20.874;2022-07-29T17:17:25;11.60;;;4.43;;
25381;SDS011;16307;42.896;20.874;2022-07-29T17:20:23;11.23;;;4.57;;
25381;SDS011;16307;42.896;20.874;2022-07-29T17:23:11;10.57;;;4.82;;
25381;SDS011;16307;42.896;20.874;2022-07-29T17:25:57;6.35;;;3.92;;
25381;SDS011;16307;42.896;20.874;2022-07-29T17:28:43;14.93;;;5.22;;
25381;SDS011;16307;42.896;20.874;2022-07-29T17:31:30;12.10;;;4.43;;
25381;SDS011;16307;42.896;20.874;2022-07-29T17:34:16;12.93;;;4.45;;
25381;SDS011;16307;42.896;20.874;2022-07-29T17:37:04;8.77;;;4.82;;
25381;SDS011;16307;42.896;20.874;2022-07-29T17:39:50;8.05;;;4.30;;
25381;SDS011;16307;42.896;20.874;2022-07-29T17:42:43;9.77;;;4.55;;
25381;SDS011;16307;42.896;20.874;2022-07-29T17:45:29;9.05;;;4.80;;
25381;SDS011;16307;42.896;20.874;2022-07-29T17:48:35;10.65;;;4.78;;
25381;SDS011;16307;42.896;20.874;2022-07-29T17:51:21;8.38;;;4.68;;
25381;SDS011;16307;42.896;20.874;2022-07-29T17:54:08;7.63;;;4.38;;
25381;SDS011;16307;42.896;20.874;2022-07-29T17:56:54;8.90;;;4.25;;
25381;SDS011;16307;42.896;20.874;2022-07-29T17:59:40;10.38;;;4.82;;
25381;SDS011;16307;42.896;20.874;2022-07-29T18:02:26;7.82;;;4.25;;
25381;SDS011;16307;42.896;20.874;2022-07-29T18:05:13;13.38;;;5.03;;
25381;SDS011;16307;42.896;20.874;2022-07-29T18:07:59;10.07;;;4.55;;
25381;SDS011;16307;42.896;20.874;2022-07-29T18:10:45;11.23;;;5.03;;
25381;SDS011;16307;42.896;20.874;2022-07-29T18:13:33;8.77;;;4.53;;
25381;SDS011;16307;42.896;20.874;2022-07-29T18:16:19;12.50;;;5.13;;
25381;SDS011;16307;42.896;20.874;2022-07-29T18:19:05;8.80;;;4.90;;
25381;SDS011;16307;42.896;20.874;2022-07-29T18:21:51;13.05;;;4.72;;
25381;SDS011;16307;42.896;20.874;2022-07-29T18:24:40;10.82;;;4.85;;
25381;SDS011;16307;42.896;20.874;2022-07-29T18:27:26;8.30;;;5.38;;
25381;SDS011;16307;42.896;20.874;2022-07-29T18:30:13;9.68;;;5.10;;
25381;SDS011;16307;42.896;20.874;2022-07-29T18:33:02;11.30;;;5.72;;
25381;SDS011;16307;42.896;20.874;2022-07-29T18:36:06;10.77;;;4.88;;
25381;SDS011;16307;42.896;20.874;2022-07-29T18:38:56;8.90;;;5.18;;
25381;SDS011;16307;42.896;20.874;2022-07-29T18:41:42;8.77;;;4.93;;
25381;SDS011;16307;42.896;20.874;2022-07-29T18:44:35;8.88;;;5.47;;
25381;SDS011;16307;42.896;20.874;2022-07-29T18:47:34;8.95;;;5.65;;
25381;SDS011;16307;42.896;20.874;2022-07-29T18:50:25;11.82;;;5.47;;
25381;SDS011;16307;42.896;20.874;2022-07-29T18:53:14;8.75;;;5.03;;
25381;SDS011;16307;42.896;20.874;2022-07-29T18:56:00;10.98;;;5.35;;
25381;SDS011;16307;42.896;20.874;2022-07-29T18:58:47;9.65;;;5.55;;
25381;SDS011;16307;42.896;20.874;2022-07-29T19:01:33;13.45;;;5.97;;
25381;SDS011;16307;42.896;20.874;2022-07-29T19:04:20;10.27;;;5.90;;
25381;SDS011;16307;42.896;20.874;2022-07-29T19:07:06;11.00;;;6.72;;
25381;SDS011;16307;42.896;20.874;2022-07-29T19:09:53;12.75;;;7.63;;
25381;SDS011;16307;42.896;20.874;2022-07-29T19:12:39;9.40;;;5.57;;
25381;SDS011;16307;42.896;20.874;2022-07-29T19:15:25;13.40;;;6.03;;
25381;SDS011;16307;42.896;20.874;2022-07-29T19:18:12;10.35;;;5.47;;
25381;SDS011;16307;42.896;20.874;2022-07-29T19:20:58;13.20;;;6.55;;
25381;SDS011;16307;42.896;20.874;2022-07-29T19:23:44;10.98;;;6.30;;
25381;SDS011;16307;42.896;20.874;2022-07-29T19:26:50;12.07;;;6.65;;
25381;SDS011;16307;42.896;20.874;2022-07-29T19:29:36;19.48;;;6.80;;
25381;SDS011;16307;42.896;20.874;2022-07-29T19:32:22;19.38;;;9.70;;
25381;SDS011;16307;42.896;20.874;2022-07-29T19:35:10;18.30;;;9.93;;
25381;SDS011;16307;42.896;20.874;2022-07-29T19:38:14;15.13;;;8.55;;
25381;SDS011;16307;42.896;20.874;2022-07-29T19:41:01;13.95;;;7.65;;
25381;SDS011;16307;42.896;20.874;2022-07-29T19:43:47;17.00;;;7.07;;
25381;SDS011;16307;42.896;20.874;2022-07-29T19:46:37;11.77;;;6.05;;
25381;SDS011;16307;42.896;20.874;2022-07-29T19:49:23;12.52;;;7.15;;
25381;SDS011;16307;42.896;20.874;2022-07-29T19:52:10;14.82;;;8.48;;
25381;SDS011;16307;42.896;20.874;2022-07-29T19:54:56;11.77;;;6.45;;
25381;SDS011;16307;42.896;20.874;2022-07-29T19:57:42;8.20;;;5.72;;
25381;SDS011;16307;42.896;20.874;2022-07-29T20:00:30;13.38;;;5.95;;
25381;SDS011;16307;42.896;20.874;2022-07-29T20:03:16;12.05;;;5.72;;
25381;SDS011;16307;42.896;20.874;2022-07-29T20:06:02;9.50;;;5.75;;
25381;SDS011;16307;42.896;20.874;2022-07-29T20:08:49;9.60;;;5.57;;
25381;SDS011;16307;42.896;20.874;2022-07-29T20:11:42;9.40;;;6.05;;
25381;SDS011;16307;42.896;20.874;2022-07-29T20:14:28;11.73;;;6.07;;
25381;SDS011;16307;42.896;20.874;2022-07-29T20:17:15;9.70;;;6.20;;
25381;SDS011;16307;42.896;20.874;2022-07-29T20:20:04;10.93;;;5.78;;
25381;SDS011;16307;42.896;20.874;2022-07-29T20:22:51;10.00;;;6.20;;
25381;SDS011;16307;42.896;20.874;2022-07-29T20:25:37;11.98;;;6.05;;
25381;SDS011;16307;42.896;20.874;2022-07-29T20:28:24;12.40;;;5.82;;
25381;SDS011;16307;42.896;20.874;2022-07-29T20:31:10;8.90;;;6.20;;
25381;SDS011;16307;42.896;20.874;2022-07-29T20:33:56;9.48;;;5.72;;
25381;SDS011;16307;42.896;20.874;2022-07-29T20:36:43;10.48;;;5.93;;
25381;SDS011;16307;42.896;20.874;2022-07-29T20:39:29;11.77;;;5.85;;
25381;SDS011;16307;42.896;20.874;2022-07-29T20:42:15;14.93;;;5.90;;
25381;SDS011;16307;42.896;20.874;2022-07-29T20:45:02;11.57;;;6.10;;
25381;SDS011;16307;42.896;20.874;2022-07-29T20:47:53;12.00;;;6.65;;
25381;SDS011;16307;42.896;20.874;2022-07-29T20:50:40;16.85;;;6.32;;
25381;SDS011;16307;42.896;20.874;2022-07-29T20:53:27;14.30;;;6.70;;
25381;SDS011;16307;42.896;20.874;2022-07-29T20:56:13;12.90;;;6.50;;